Aérodrome :
LOGIN :

S'inscrire | Disclaimer

   EN    FR    IT 

 










Légende :    VFR   VFR Marginal   IFR   IFR Intensif   IFR Très Intensif
Visi : 
Plafond : 
>= 8 km
>= 3000ft
5 à 8 km
1000 à 3000 ft
1500m à 5 km
500 à 1000 ft
800 à 1500m
200 à 500 ft
< 800m
< 200 ft
Symboles :   Orages  Brouillard  Fortes neiges  Fortes précipitations  Vent > 20 kt
SIGMETs :   Divers  Orages  Givrage  Turbulence  Onde Orograph.  Cendres Volcan.






- Altitude de l'aérodrome : 102 ft
- Code IATA : CNG


LFBG - Cognac

DERNIER METAR :
  • 071400Z AUTO 22006KT 9999 BKN013 OVC021 13/12 Q1021

METARs EXPIRÉS :
  • 071330Z AUTO 21006KT 9999 BKN011 BKN017 BKN026 14/12 Q1021
  • 071300Z AUTO 23006KT 190V260 9999 BKN012 OVC017 14/11 Q1021
  • 071230Z AUTO 20003KT 170V240 9999 BKN007 BKN015 OVC034 13/12 Q1021
  • 071200Z AUTO 22006KT 9999 BKN005 BKN009 OVC032 12/11 Q1021
  • 071130Z AUTO 20007KT 9999 OVC004 12/11 Q1022

TAF TAF LFBG
Valide du 06 à 15h jusqu'au 07 à 15h UTC


061400Z 0615/0715 18008KT 6000 OVC004
TEMPO 0620/0715 3000 -RA



MET'MAP, la Météo Aéronautique d'un coup d'oeil ! - Copyright ORBIFLY Décembre 2007 - Disclaimer

ORBIFLY MET'MAP TEAM :

Programmation & Développement : Alexandra Zaïnal
Sur une idée originale de : Baudouin d'Aumeries
Assistance à la programmation : Marc-Olivier Méhu
Soutien technique & logistique : Manuel Goepfert

Contact : metmap@orbifly.com




SOURCES & CREDITS :

   NOAA